Time;durP1;ratioP1;P1;durP2;ratioP2;P2;SDS_P1;SDS_P2;PMS_P1;PMS_P2;Temp;Humidity;BMP_temperature;BMP_pressure;BME280_temperature;BME280_humidity;BME280_pressure;Samples;Min_cycle;Max_cycle;Signal;HPM_P1;HPM_P2
2022/09/01 00:00:40;;;;;;;2.07;1.27;;;18.60;99.90;;;;;;5092562;28;20727;-69
2022/09/01 00:03:09;;;;;;;1.20;1.13;;;18.70;99.90;;;;;;5107542;28;20572;-69
2022/09/01 00:05:36;;;;;;;1.20;1.10;;;18.70;99.90;;;;;;5107395;28;20209;-69
2022/09/01 00:08:04;;;;;;;2.37;1.17;;;18.70;99.90;;;;;;5105690;28;20226;-69
2022/09/01 00:10:31;;;;;;;1.10;1.10;;;18.70;99.90;;;;;;5107087;28;20213;-69
2022/09/01 00:12:57;;;;;;;1.67;1.27;;;18.60;99.90;;;;;;5107051;28;20225;-69
2022/09/01 00:15:26;;;;;;;1.10;1.00;;;18.60;99.90;;;;;;5106750;28;20210;-69
2022/09/01 00:17:53;;;;;;;1.37;1.10;;;18.50;99.90;;;;;;5102285;28;20869;-69
2022/09/01 00:20:20;;;;;;;1.40;1.10;;;18.40;99.90;;;;;;5092797;28;20358;-69
2022/09/01 00:22:47;;;;;;;1.07;1.00;;;18.40;99.90;;;;;;5107161;28;20202;-69
2022/09/01 00:25:14;;;;;;;1.00;0.90;;;18.30;99.90;;;;;;5103571;28;20655;-69
2022/09/01 00:27:40;;;;;;;1.17;1.07;;;18.40;99.90;;;;;;5106807;28;20221;-69
2022/09/01 00:30:08;;;;;;;3.27;1.50;;;18.40;99.90;;;;;;5109868;28;20208;-69
2022/09/01 00:32:37;;;;;;;0.93;0.90;;;18.40;99.90;;;;;;5110282;28;20199;-69
2022/09/01 00:35:04;;;;;;;1.93;1.30;;;18.40;99.90;;;;;;5110838;28;20293;-70
2022/09/01 00:37:31;;;;;;;1.17;0.90;;;18.40;99.90;;;;;;5110880;28;20206;-68
2022/09/01 00:39:58;;;;;;;0.97;0.97;;;18.40;99.90;;;;;;5110356;28;20232;-68
2022/09/01 00:42:25;;;;;;;0.83;0.80;;;18.40;99.90;;;;;;5104362;28;20199;-70
2022/09/01 00:44:52;;;;;;;0.70;0.70;;;18.30;99.90;;;;;;5090055;28;20211;-70
2022/09/01 00:47:19;;;;;;;3.70;1.10;;;18.30;99.90;;;;;;5101653;28;20198;-70
2022/09/01 00:49:49;;;;;;;1.63;1.20;;;18.30;99.90;;;;;;5110229;27;20208;-70
2022/09/01 00:52:22;;;;;;;1.97;0.80;;;18.30;99.90;;;;;;5110337;28;20241;-70
2022/09/01 00:54:53;;;;;;;0.97;0.87;;;18.20;99.90;;;;;;5097951;28;20675;-70
2022/09/01 00:57:20;;;;;;;1.33;0.83;;;18.20;99.90;;;;;;5099679;28;20202;-70
2022/09/01 00:59:51;;;;;;;3.10;1.23;;;18.20;99.90;;;;;;5110233;28;20292;-70
2022/09/01 01:02:18;;;;;;;1.10;0.93;;;18.20;99.90;;;;;;5109971;28;20191;-70
2022/09/01 01:04:46;;;;;;;0.70;0.70;;;18.20;99.90;;;;;;5108447;28;20208;-70
2022/09/01 01:07:14;;;;;;;1.17;1.00;;;18.20;99.90;;;;;;5110196;28;20206;-70
2022/09/01 01:09:44;;;;;;;1.27;0.87;;;18.20;99.90;;;;;;5089596;28;20242;-70
2022/09/01 01:12:17;;;;;;;1.33;1.00;;;18.10;99.90;;;;;;5090275;28;20202;-71
2022/09/01 01:14:44;;;;;;;1.27;0.97;;;18.10;99.90;;;;;;5089043;28;20727;-71
2022/09/01 01:17:11;;;;;;;1.87;1.20;;;18.10;99.90;;;;;;5089227;28;20214;-71
2022/09/01 01:25:23;;;;;;;1.17;1.17;;;18.00;99.90;;;;;;5090685;28;20218;-70
2022/09/01 01:27:50;;;;;;;1.30;1.20;;;18.00;99.90;;;;;;5089064;28;20320;-70
2022/09/01 01:30:19;;;;;;;2.50;1.27;;;18.10;99.90;;;;;;5103603;28;20307;-70
2022/09/01 01:32:48;;;;;;;1.50;1.33;;;18.00;99.90;;;;;;5109819;28;20206;-70
2022/09/01 01:35:17;;;;;;;2.03;1.30;;;18.00;99.90;;;;;;5109069;28;20220;-70
2022/09/01 01:37:47;;;;;;;1.23;1.20;;;18.10;99.90;;;;;;5109438;28;20214;-69
2022/09/01 01:40:15;;;;;;;2.30;1.50;;;18.10;99.90;;;;;;5090795;28;20293;-69
2022/09/01 01:42:45;;;;;;;1.80;1.70;;;18.10;99.90;;;;;;5090182;28;20681;-71
2022/09/01 01:45:15;;;;;;;1.47;1.43;;;18.10;99.90;;;;;;5106556;28;21055;-70
2022/09/01 01:47:45;;;;;;;1.90;1.40;;;18.10;99.90;;;;;;5109111;28;20270;-70
2022/09/01 01:50:12;;;;;;;1.27;1.17;;;18.00;99.90;;;;;;5109308;28;20320;-70
2022/09/01 01:52:38;;;;;;;1.10;1.00;;;18.10;99.90;;;;;;5106172;28;20311;-70
2022/09/01 01:55:11;;;;;;;2.17;1.20;;;18.10;99.90;;;;;;5108324;28;20551;-70
2022/09/01 01:57:40;;;;;;;1.10;1.10;;;18.00;99.90;;;;;;5108790;28;20198;-69
2022/09/01 02:00:11;;;;;;;1.23;1.20;;;18.00;99.90;;;;;;5108022;27;20970;-70
2022/09/01 02:02:38;;;;;;;1.13;1.07;;;17.90;99.90;;;;;;5108021;28;20544;-70
2022/09/01 02:05:06;;;;;;;1.37;1.27;;;17.90;99.90;;;;;;5108199;28;20190;-70
2022/09/01 02:07:33;;;;;;;1.30;1.20;;;17.90;99.90;;;;;;5108759;28;20241;-69
2022/09/01 02:10:00;;;;;;;1.43;1.30;;;17.90;99.90;;;;;;5108841;28;20241;-70
2022/09/01 02:12:27;;;;;;;2.70;1.70;;;17.90;99.90;;;;;;5108803;28;20595;-69
2022/09/01 02:14:54;;;;;;;4.10;1.63;;;17.80;99.90;;;;;;5108703;27;20210;-69
2022/09/01 02:17:25;;;;;;;2.30;2.00;;;17.80;99.90;;;;;;5099884;28;20293;-69
2022/09/01 02:19:56;;;;;;;1.93;1.83;;;17.80;99.90;;;;;;5090101;28;20197;-68
2022/09/01 02:22:23;;;;;;;2.20;2.00;;;17.80;99.90;;;;;;5108744;28;20197;-69
2022/09/01 02:24:52;;;;;;;3.10;2.43;;;17.80;99.90;;;;;;5108318;28;20220;-69
2022/09/01 02:27:24;;;;;;;2.50;2.10;;;17.80;99.90;;;;;;5100538;28;20230;-68
2022/09/01 02:29:53;;;;;;;1.90;1.80;;;17.90;99.90;;;;;;5099556;28;20214;-68
2022/09/01 02:32:20;;;;;;;4.10;1.90;;;17.90;99.90;;;;;;5106238;28;20687;-68
2022/09/01 02:34:52;;;;;;;2.90;1.57;;;17.90;99.90;;;;;;5106847;28;20293;-69
2022/09/01 02:37:24;;;;;;;2.13;1.80;;;17.80;99.90;;;;;;5105689;28;20195;-68
2022/09/01 02:39:52;;;;;;;1.97;1.60;;;17.80;99.90;;;;;;5095395;28;20587;-68
2022/09/01 02:42:26;;;;;;;1.80;1.70;;;17.80;99.90;;;;;;5090550;28;20275;-68
2022/09/01 02:44:54;;;;;;;2.80;1.90;;;17.80;99.90;;;;;;5085615;28;20191;-68
2022/09/01 02:47:22;;;;;;;2.00;1.90;;;17.80;99.90;;;;;;5085108;28;20620;-68
2022/09/01 02:49:50;;;;;;;2.10;1.63;;;17.80;99.90;;;;;;5095103;28;20225;-68
2022/09/01 02:52:19;;;;;;;2.13;1.63;;;17.70;99.90;;;;;;5105739;28;20601;-67
2022/09/01 02:54:48;;;;;;;1.83;1.73;;;17.70;99.90;;;;;;5099886;28;20780;-67
2022/09/01 02:57:15;;;;;;;1.63;1.50;;;17.60;99.90;;;;;;5088683;28;20203;-67
2022/09/01 02:59:42;;;;;;;2.17;1.93;;;17.60;99.90;;;;;;5093683;28;20213;-67
2022/09/01 03:02:10;;;;;;;4.37;1.73;;;17.60;99.90;;;;;;5084956;28;20202;-67
2022/09/01 03:04:37;;;;;;;3.70;1.80;;;17.50;99.90;;;;;;5101854;28;20222;-67
2022/09/01 03:07:07;;;;;;;2.00;1.73;;;17.50;99.90;;;;;;5105754;28;20664;-68
2022/09/01 03:09:35;;;;;;;2.30;1.80;;;17.50;99.90;;;;;;5104306;28;20265;-68
2022/09/01 03:12:05;;;;;;;1.70;1.40;;;17.40;99.90;;;;;;5105153;28;20213;-67
2022/09/01 03:14:32;;;;;;;2.37;2.17;;;17.40;99.90;;;;;;5106211;28;20209;-67
2022/09/01 03:17:00;;;;;;;2.50;1.90;;;17.30;99.90;;;;;;5105927;28;20206;-67
2022/09/01 03:19:29;;;;;;;1.57;1.47;;;17.30;99.90;;;;;;5106348;28;20259;-67
2022/09/01 03:21:59;;;;;;;1.63;1.53;;;17.30;99.90;;;;;;5106092;28;20263;-68
2022/09/01 03:24:27;;;;;;;1.80;1.43;;;17.20;99.90;;;;;;5106212;28;20299;-67
2022/09/01 03:26:54;;;;;;;2.97;1.90;;;17.20;99.90;;;;;;5107009;28;20202;-68
2022/09/01 03:29:21;;;;;;;1.77;1.50;;;17.20;99.90;;;;;;5107587;28;20553;-67
2022/09/01 03:31:48;;;;;;;1.73;1.63;;;17.10;99.90;;;;;;5106934;28;20205;-67
2022/09/01 03:34:22;;;;;;;3.23;1.63;;;17.10;99.90;;;;;;5107727;28;20209;-67
2022/09/01 03:36:49;;;;;;;4.07;2.00;;;17.00;99.90;;;;;;5107128;28;20243;-67
2022/09/01 03:39:17;;;;;;;7.27;2.20;;;17.00;99.90;;;;;;5107470;28;20213;-67
2022/09/01 03:41:45;;;;;;;1.97;1.80;;;17.00;99.90;;;;;;5107345;28;20212;-67
2022/09/01 03:44:15;;;;;;;1.93;1.80;;;17.00;99.90;;;;;;5107122;28;20213;-67
2022/09/01 03:46:42;;;;;;;2.57;1.90;;;16.90;99.90;;;;;;5092043;28;20222;-67
2022/09/01 03:49:14;;;;;;;2.10;1.90;;;16.90;99.90;;;;;;5086691;28;20231;-67
2022/09/01 03:51:42;;;;;;;3.67;2.20;;;16.90;99.90;;;;;;5086369;28;20238;-67
2022/09/01 03:54:09;;;;;;;2.10;1.90;;;16.90;99.90;;;;;;5086549;28;20214;-67
2022/09/01 03:56:39;;;;;;;2.13;2.00;;;16.80;99.90;;;;;;5087045;28;20206;-67
2022/09/01 03:59:09;;;;;;;1.77;1.67;;;16.80;99.90;;;;;;5090007;28;20218;-67
2022/09/01 04:01:42;;;;;;;4.50;1.67;;;16.80;99.90;;;;;;5090378;28;20221;-67
2022/09/01 04:04:12;;;;;;;1.67;1.47;;;16.80;99.90;;;;;;5090458;28;20268;-67
2022/09/01 04:06:39;;;;;;;2.63;1.60;;;16.70;99.90;;;;;;5090697;28;20199;-68
2022/09/01 04:09:06;;;;;;;6.07;1.80;;;16.70;99.90;;;;;;5090317;28;20238;-67
2022/09/01 04:11:35;;;;;;;1.97;1.63;;;16.70;99.90;;;;;;5090037;28;20210;-67
2022/09/01 04:14:02;;;;;;;1.80;1.70;;;16.70;99.90;;;;;;5090052;28;20206;-67
2022/09/01 04:19:24;;;;;;;1.80;1.40;;;16.60;99.90;;;;;;5090148;28;20809;-67
2022/09/01 04:21:53;;;;;;;3.33;1.70;;;16.60;99.90;;;;;;5108818;28;20201;-67
2022/09/01 04:24:22;;;;;;;3.13;1.90;;;16.60;99.90;;;;;;5110558;28;20217;-67
2022/09/01 04:26:50;;;;;;;1.57;1.47;;;16.50;99.90;;;;;;5110356;28;20202;-67
2022/09/01 04:29:18;;;;;;;3.47;1.70;;;16.50;99.90;;;;;;5110396;28;20234;-67
2022/09/01 04:31:50;;;;;;;13.97;2.77;;;16.40;99.90;;;;;;5110135;28;20198;-67
2022/09/01 04:34:17;;;;;;;9.87;1.90;;;16.40;99.90;;;;;;5110050;28;20194;-67
2022/09/01 04:36:45;;;;;;;6.13;1.60;;;16.40;99.90;;;;;;5100523;28;20207;-68
2022/09/01 04:39:12;;;;;;;5.17;1.97;;;16.50;99.90;;;;;;5089935;28;20836;-67
2022/09/01 04:41:45;;;;;;;4.70;1.83;;;16.40;99.90;;;;;;5093525;28;20233;-67
2022/09/01 04:44:17;;;;;;;2.20;1.30;;;16.40;99.90;;;;;;5110129;28;20708;-67
2022/09/01 04:46:49;;;;;;;2.00;1.40;;;16.40;99.90;;;;;;5110060;28;20265;-67
2022/09/01 04:49:21;;;;;;;1.83;1.37;;;16.30;99.90;;;;;;5109907;28;20220;-67
2022/09/01 04:51:50;;;;;;;2.00;1.30;;;16.30;99.90;;;;;;5109597;28;20242;-67
2022/09/01 04:54:19;;;;;;;1.53;1.43;;;16.30;99.90;;;;;;5099967;28;20211;-67
2022/09/01 04:56:49;;;;;;;3.70;1.53;;;16.30;99.90;;;;;;5089291;28;20230;-67
2022/09/01 04:59:19;;;;;;;1.47;1.37;;;16.30;99.90;;;;;;5089717;28;20215;-67
2022/09/01 05:01:49;;;;;;;15.73;2.27;;;16.30;99.90;;;;;;5089154;28;20207;-67
2022/09/01 05:04:18;;;;;;;4.80;1.60;;;16.30;99.90;;;;;;5090587;28;20207;-67
2022/09/01 05:06:48;;;;;;;13.67;2.00;;;16.30;99.90;;;;;;5092367;28;20213;-67
2022/09/01 05:09:16;;;;;;;2.40;1.30;;;16.30;99.90;;;;;;5088426;28;20582;-67
2022/09/01 05:11:47;;;;;;;2.00;1.50;;;16.30;99.90;;;;;;5089350;28;20301;-67
2022/09/01 05:14:17;;;;;;;5.97;1.50;;;16.30;99.90;;;;;;5089233;28;20649;-67
2022/09/01 05:16:44;;;;;;;1.57;1.47;;;16.30;99.90;;;;;;5088727;28;20214;-67
2022/09/01 05:19:14;;;;;;;2.30;1.70;;;16.30;99.90;;;;;;5089462;28;20290;-67
2022/09/01 05:21:44;;;;;;;2.37;1.40;;;16.30;99.90;;;;;;5089024;28;20231;-67
2022/09/01 05:24:11;;;;;;;1.30;1.20;;;16.30;99.90;;;;;;5089079;28;20214;-67
2022/09/01 05:26:39;;;;;;;3.50;1.57;;;16.30;99.90;;;;;;5089011;28;20203;-67
2022/09/01 05:29:09;;;;;;;1.80;1.70;;;16.30;99.90;;;;;;5088819;28;20234;-67
2022/09/01 05:31:36;;;;;;;2.07;1.80;;;16.30;99.90;;;;;;5088508;28;20206;-67
2022/09/01 05:34:08;;;;;;;23.87;3.37;;;16.30;99.90;;;;;;5105039;28;20205;-67
2022/09/01 05:36:38;;;;;;;3.10;1.97;;;16.40;99.90;;;;;;5100876;28;20206;-67
2022/09/01 05:39:06;;;;;;;2.47;1.70;;;16.30;99.90;;;;;;5088376;28;20665;-67
2022/09/01 05:41:34;;;;;;;2.17;1.83;;;16.30;99.90;;;;;;5088794;28;20232;-67
2022/09/01 05:44:03;;;;;;;2.10;1.60;;;16.40;99.90;;;;;;5088667;28;20203;-67
2022/09/01 05:46:30;;;;;;;4.10;1.97;;;16.40;99.90;;;;;;5088328;28;20199;-67
2022/09/01 05:48:57;;;;;;;2.73;1.77;;;16.40;99.90;;;;;;5088326;28;20206;-67
2022/09/01 05:51:27;;;;;;;1.90;1.80;;;16.40;99.90;;;;;;5094566;28;20242;-67
2022/09/01 05:53:58;;;;;;;3.20;2.00;;;16.40;99.90;;;;;;5108998;28;20248;-67
2022/09/01 05:56:26;;;;;;;5.90;2.80;;;16.40;99.90;;;;;;5108721;28;20633;-67
2022/09/01 05:58:54;;;;;;;6.10;2.37;;;16.40;99.90;;;;;;5108400;28;20233;-67
2022/09/01 06:01:25;;;;;;;2.57;2.43;;;16.40;99.90;;;;;;5108430;28;20352;-67
2022/09/01 06:03:53;;;;;;;3.87;2.73;;;16.50;99.90;;;;;;5091849;28;20206;-67
2022/09/01 06:06:21;;;;;;;3.40;2.70;;;16.50;99.90;;;;;;5088146;28;20199;-67
2022/09/01 06:08:49;;;;;;;4.23;2.33;;;16.50;99.90;;;;;;5087880;28;20701;-67
2022/09/01 06:11:17;;;;;;;3.20;2.80;;;16.50;99.90;;;;;;5087938;28;20245;-67
2022/09/01 06:13:46;;;;;;;3.80;2.90;;;16.50;99.90;;;;;;5087794;28;20206;-67
2022/09/01 06:16:14;;;;;;;2.60;2.20;;;16.50;99.90;;;;;;5087618;28;20249;-67
2022/09/01 06:18:42;;;;;;;4.53;2.03;;;16.60;99.90;;;;;;5087759;28;20654;-67
2022/09/01 06:21:13;;;;;;;2.40;2.20;;;16.50;99.90;;;;;;5099708;28;20259;-67
2022/09/01 06:23:41;;;;;;;4.70;2.00;;;16.60;99.90;;;;;;5107933;28;20198;-67
2022/09/01 06:26:15;;;;;;;2.27;1.97;;;16.60;99.90;;;;;;5107885;28;20191;-67
2022/09/01 06:28:44;;;;;;;2.07;1.97;;;16.60;99.90;;;;;;5107825;28;20189;-67
2022/09/01 06:31:11;;;;;;;4.40;2.57;;;16.60;99.90;;;;;;5107495;28;20711;-67
2022/09/01 06:33:39;;;;;;;3.03;2.40;;;16.70;99.90;;;;;;5107992;28;20198;-67
2022/09/01 06:36:08;;;;;;;8.07;2.80;;;16.70;99.90;;;;;;5108009;27;20569;-67
2022/09/01 06:38:36;;;;;;;4.33;2.60;;;16.80;99.90;;;;;;5103343;28;20752;-67
2022/09/01 06:41:11;;;;;;;2.80;2.10;;;16.80;99.90;;;;;;5087634;28;20242;-67
2022/09/01 06:43:39;;;;;;;2.47;2.20;;;16.80;99.90;;;;;;5087391;28;20199;-67
2022/09/01 06:46:09;;;;;;;3.90;2.00;;;16.90;99.90;;;;;;5087476;28;20209;-67
2022/09/01 06:48:38;;;;;;;5.00;2.40;;;17.00;99.90;;;;;;5101649;28;20202;-68
2022/09/01 06:51:08;;;;;;;2.83;2.17;;;17.10;99.90;;;;;;5107516;28;20234;-68
2022/09/01 06:53:35;;;;;;;2.77;2.20;;;17.10;99.90;;;;;;5107933;28;20578;-68
2022/09/01 06:56:02;;;;;;;2.30;2.10;;;17.20;99.90;;;;;;5107518;28;20293;-68
2022/09/01 06:58:29;;;;;;;2.27;2.07;;;17.20;99.90;;;;;;5107625;28;20293;-68
2022/09/01 07:00:57;;;;;;;3.73;2.43;;;17.40;99.90;;;;;;5107180;28;20668;-68
2022/09/01 07:03:26;;;;;;;5.23;2.80;;;17.30;99.90;;;;;;5107751;28;20225;-68
2022/09/01 07:05:53;;;;;;;2.97;2.50;;;17.40;99.90;;;;;;5107475;28;20237;-68
2022/09/01 07:08:22;;;;;;;3.37;2.50;;;17.50;99.90;;;;;;5107709;28;20265;-68
2022/09/01 07:10:52;;;;;;;10.23;2.70;;;17.50;99.90;;;;;;5107132;28;20233;-68
2022/09/01 07:13:24;;;;;;;2.07;1.87;;;17.60;99.90;;;;;;5107832;28;20191;-68
2022/09/01 07:15:52;;;;;;;2.43;1.97;;;17.60;99.90;;;;;;5107253;28;20229;-68
2022/09/01 07:18:21;;;;;;;26.50;3.07;;;17.70;99.90;;;;;;5107517;28;20213;-68
2022/09/01 07:20:50;;;;;;;3.10;1.63;;;17.70;99.90;;;;;;5107376;28;20216;-68
2022/09/01 07:23:18;;;;;;;1.30;1.20;;;17.70;99.90;;;;;;5107575;28;20676;-68
2022/09/01 07:25:48;;;;;;;2.30;1.20;;;17.80;99.90;;;;;;5107443;28;20221;-68
2022/09/01 07:28:17;;;;;;;3.13;0.80;;;17.80;99.90;;;;;;5106488;28;20305;-68
2022/09/01 07:30:48;;;;;;;3.53;1.13;;;17.90;99.90;;;;;;5092678;28;20711;-68
2022/09/01 07:33:17;;;;;;;2.10;1.07;;;18.00;99.90;;;;;;5109412;28;20645;-68
2022/09/01 07:35:45;;;;;;;5.07;2.77;;;18.00;99.90;;;;;;5111156;28;20737;-68
2022/09/01 07:38:13;;;;;;;2.43;2.20;;;18.10;99.90;;;;;;5110370;28;20748;-68
2022/09/01 07:40:41;;;;;;;1.70;1.60;;;18.10;99.90;;;;;;5090982;28;20206;-68
2022/09/01 07:43:21;;;;;;;7.83;1.80;;;18.10;99.90;;;;;;5090868;28;20661;-68
2022/09/01 07:45:49;;;;;;;3.00;1.40;;;18.20;99.90;;;;;;5090519;28;20197;-68
2022/09/01 07:48:19;;;;;;;2.73;1.90;;;18.20;99.90;;;;;;5090993;28;20203;-68
2022/09/01 07:50:47;;;;;;;2.10;1.50;;;18.30;99.90;;;;;;5090806;28;20226;-68
2022/09/01 07:53:17;;;;;;;5.50;1.50;;;18.30;99.90;;;;;;5091722;28;20230;-68
2022/09/01 07:55:45;;;;;;;2.70;1.20;;;18.40;99.90;;;;;;5110519;28;20555;-68
2022/09/01 07:58:12;;;;;;;1.57;1.47;;;18.50;99.90;;;;;;5110976;28;20246;-68
2022/09/01 08:00:40;;;;;;;2.60;1.00;;;18.50;99.90;;;;;;5110557;28;20213;-68
2022/09/01 08:03:06;;;;;;;1.40;1.10;;;18.60;99.90;;;;;;5110444;28;20210;-68
2022/09/01 08:05:33;;;;;;;1.20;1.10;;;18.60;99.90;;;;;;5110719;28;20224;-68
2022/09/01 08:08:00;;;;;;;6.07;1.27;;;18.70;99.90;;;;;;5110436;28;20240;-68
2022/09/01 08:10:28;;;;;;;2.53;1.20;;;18.70;99.90;;;;;;5110387;28;20257;-68
2022/09/01 08:12:55;;;;;;;1.73;0.87;;;18.80;99.90;;;;;;5110207;28;20591;-68
2022/09/01 08:15:22;;;;;;;4.83;1.07;;;18.80;99.90;;;;;;5110198;28;20583;-68
2022/09/01 08:17:49;;;;;;;1.80;1.10;;;18.90;99.90;;;;;;5110344;28;20727;-68
2022/09/01 08:20:16;;;;;;;27.50;3.13;;;19.00;99.90;;;;;;5110706;28;20822;-68
2022/09/01 08:22:43;;;;;;;4.53;1.07;;;19.00;99.90;;;;;;5110341;28;20198;-68
2022/09/01 08:25:10;;;;;;;1.60;1.23;;;19.00;99.90;;;;;;5095164;28;20210;-68
2022/09/01 08:27:38;;;;;;;0.80;0.80;;;19.10;99.90;;;;;;5101955;28;20221;-68
2022/09/01 08:30:08;;;;;;;2.80;1.03;;;19.10;99.90;;;;;;5110287;28;20222;-68
2022/09/01 08:32:36;;;;;;;0.80;0.80;;;19.20;99.90;;;;;;5110296;28;20572;-68
2022/09/01 08:35:05;;;;;;;3.23;0.83;;;19.20;99.90;;;;;;5110518;27;20297;-68
2022/09/01 08:37:32;;;;;;;1.70;1.10;;;19.40;99.90;;;;;;5110378;28;20205;-68
2022/09/01 08:39:59;;;;;;;1.53;1.20;;;19.40;99.90;;;;;;5098217;28;20202;-69
2022/09/01 08:42:44;;;;;;;2.63;1.20;;;19.50;99.90;;;;;;5109957;28;20668;-68
2022/09/01 08:45:20;;;;;;;1.30;0.90;;;19.50;99.90;;;;;;5109018;28;20198;-68
2022/09/01 08:47:47;;;;;;;1.13;0.97;;;19.60;99.90;;;;;;5109874;28;20190;-68
2022/09/01 08:50:15;;;;;;;0.93;0.83;;;19.60;99.90;;;;;;5109764;28;20249;-68
2022/09/01 08:52:46;;;;;;;4.57;1.10;;;19.70;99.90;;;;;;5109339;28;20236;-69
2022/09/01 08:55:20;;;;;;;3.50;1.00;;;19.80;99.90;;;;;;5092108;28;20233;-69
2022/09/01 08:57:50;;;;;;;15.93;1.80;;;19.80;99.90;;;;;;5089459;28;20191;-68
2022/09/01 09:00:22;;;;;;;0.77;0.77;;;19.90;99.90;;;;;;5088862;28;20744;-68
2022/09/01 09:02:57;;;;;;;1.37;0.93;;;20.00;99.90;;;;;;5089595;28;20448;-68
2022/09/01 09:05:32;;;;;;;1.87;0.77;;;20.10;99.90;;;;;;5089702;28;20251;-68
2022/09/01 09:08:37;;;;;;;3.47;0.90;;;20.10;99.90;;;;;;5089370;28;20234;-69
2022/09/01 09:11:18;;;;;;;2.03;0.80;;;20.10;99.90;;;;;;5088929;28;20231;-68
2022/09/01 09:13:57;;;;;;;1.27;0.97;;;20.20;99.90;;;;;;5088400;28;20198;-69
2022/09/01 09:16:28;;;;;;;3.37;1.10;;;20.30;99.90;;;;;;5088990;28;20240;-68
2022/09/01 09:19:00;;;;;;;2.67;0.82;;;20.30;99.90;;;;;;5088969;28;20195;-68
2022/09/01 09:21:32;;;;;;;2.40;0.73;;;20.40;99.90;;;;;;5093535;28;20201;-68
2022/09/01 09:24:06;;;;;;;1.50;0.73;;;20.50;99.90;;;;;;5104186;27;20363;-68
2022/09/01 09:26:33;;;;;;;3.90;1.00;;;20.50;99.90;;;;;;5109458;28;20194;-69
2022/09/01 09:29:01;;;;;;;0.73;0.70;;;20.50;99.90;;;;;;5109464;27;20297;-69
2022/09/01 09:31:30;;;;;;;5.47;1.10;;;20.60;99.90;;;;;;5108618;28;20225;-69
2022/09/01 09:33:58;;;;;;;1.15;0.90;;;20.70;99.90;;;;;;5109201;27;20205;-68
2022/09/01 09:36:32;;;;;;;6.05;1.00;;;20.80;99.90;;;;;;5103107;28;20207;-68
2022/09/01 09:39:09;;;;;;;2.20;0.85;;;20.90;99.90;;;;;;5088874;28;20211;-68
2022/09/01 09:41:36;;;;;;;1.85;0.70;;;20.90;99.90;;;;;;5088895;28;20240;-69
2022/09/01 09:44:13;;;;;;;1.60;0.90;;;21.00;99.90;;;;;;5088857;28;20226;-68
2022/09/01 09:46:42;;;;;;;2.53;1.13;;;21.10;99.90;;;;;;5093379;28;20577;-69
2022/09/01 09:49:15;;;;;;;0.90;0.63;;;21.10;99.90;;;;;;5108587;27;20213;-68
2022/09/01 09:51:44;;;;;;;0.70;0.70;;;21.20;99.90;;;;;;5108494;28;20356;-68
2022/09/01 09:54:13;;;;;;;1.27;0.90;;;21.20;99.90;;;;;;5108850;28;20216;-69
2022/09/01 09:56:43;;;;;;;1.27;1.00;;;21.30;99.90;;;;;;5108607;28;20300;-68
2022/09/01 09:59:23;;;;;;;1.25;1.15;;;21.40;99.90;;;;;;5108355;28;20207;-69
2022/09/01 10:01:53;;;;;;;1.73;0.80;;;21.50;99.90;;;;;;5108381;28;20287;-69
2022/09/01 10:04:34;;;;;;;1.65;0.80;;;21.70;99.90;;;;;;5108398;28;20731;-68
2022/09/01 10:07:00;;;;;;;2.22;1.10;;;21.70;99.90;;;;;;5108109;28;20708;-68
2022/09/01 10:09:36;;;;;;;0.47;0.47;;;21.70;99.90;;;;;;5108458;28;20263;-68
2022/09/01 10:12:05;;;;;;;1.58;0.90;;;21.70;99.90;;;;;;5108463;28;20225;-68
2022/09/01 10:14:41;;;;;;;1.33;0.70;;;21.70;99.90;;;;;;5108235;28;20255;-69
2022/09/01 10:17:14;;;;;;;0.85;0.70;;;21.80;99.90;;;;;;5108258;28;20285;-69
2022/09/01 10:19:53;;;;;;;1.38;0.70;;;21.80;99.90;;;;;;5108461;28;20193;-68
2022/09/01 10:22:20;;;;;;;1.90;0.55;;;21.80;99.90;;;;;;5108178;28;20656;-68
2022/09/01 10:24:47;;;;;;;1.10;0.68;;;21.70;99.90;;;;;;5108256;28;20202;-68
2022/09/01 10:27:21;;;;;;;0.60;0.60;;;21.80;99.90;;;;;;5108308;28;20202;-68
2022/09/01 10:29:56;;;;;;;1.60;0.70;;;21.90;99.90;;;;;;5108022;28;20201;-68
2022/09/01 10:32:27;;;;;;;0.52;0.50;;;22.10;99.90;;;;;;5107921;28;20810;-68
2022/09/01 10:34:55;;;;;;;0.45;0.40;;;22.20;99.90;;;;;;5107414;28;20994;-69
2022/09/01 10:37:23;;;;;;;4.10;0.75;;;22.20;99.40;;;;;;5108136;28;20206;-69
2022/09/01 10:40:13;;;;;;;2.47;0.43;;;22.40;99.50;;;;;;5092645;28;20218;-68
2022/09/01 10:42:41;;;;;;;0.95;0.70;;;22.50;99.50;;;;;;5090424;28;20202;-68
2022/09/01 10:45:21;;;;;;;1.52;0.70;;;22.60;98.50;;;;;;5091662;28;20207;-69
2022/09/01 10:47:49;;;;;;;1.55;0.50;;;22.70;98.30;;;;;;5087602;28;20187;-69
2022/09/01 10:50:27;;;;;;;1.50;0.65;;;22.80;98.10;;;;;;5087463;28;20211;-69
2022/09/01 10:52:57;;;;;;;2.20;0.50;;;22.90;98.40;;;;;;5086838;28;20241;-69
2022/09/01 10:55:28;;;;;;;0.50;0.50;;;23.10;98.00;;;;;;5106962;28;20234;-69
2022/09/01 10:58:13;;;;;;;1.65;0.60;;;23.20;97.70;;;;;;5107662;28;20198;-69
2022/09/01 11:01:01;;;;;;;0.98;0.70;;;23.30;97.70;;;;;;5107480;28;20201;-69
2022/09/01 11:03:52;;;;;;;1.67;0.90;;;23.60;98.20;;;;;;5107888;28;20186;-69
2022/09/01 11:06:34;;;;;;;0.80;0.77;;;23.70;96.50;;;;;;5107760;28;20186;-69
2022/09/01 11:09:04;;;;;;;0.90;0.60;;;23.60;96.50;;;;;;5107067;28;20202;-69
2022/09/01 11:11:39;;;;;;;0.77;0.50;;;23.50;96.40;;;;;;5107936;28;20221;-69
2022/09/01 11:14:18;;;;;;;1.75;0.45;;;23.30;96.60;;;;;;5105338;28;20197;-69
2022/09/01 11:17:14;;;;;;;1.42;0.63;;;23.40;96.70;;;;;;5092422;28;20213;-69
2022/09/01 11:19:43;;;;;;;0.93;0.93;;;23.40;96.50;;;;;;5087240;28;20371;-69
2022/09/01 11:22:25;;;;;;;0.43;0.43;;;23.60;96.70;;;;;;5087214;28;20207;-67
2022/09/01 11:25:37;;;;;;;0.77;0.70;;;23.60;95.00;;;;;;5102296;28;20225;-69
2022/09/01 11:28:23;;;;;;;2.05;0.73;;;23.40;94.70;;;;;;5107308;28;20197;-69
2022/09/01 11:30:55;;;;;;;2.10;0.82;;;23.40;95.20;;;;;;5077594;28;20259;-69
2022/09/01 11:33:50;;;;;;;1.35;0.93;;;23.20;95.70;;;;;;5087460;28;20227;-69
2022/09/01 11:36:28;;;;;;;0.73;0.73;;;23.00;95.60;;;;;;5084990;28;20213;-69
2022/09/01 11:39:06;;;;;;;0.80;0.80;;;22.90;95.20;;;;;;5089797;28;20808;-68
2022/09/01 11:41:44;;;;;;;0.80;0.80;;;22.80;96.00;;;;;;5089598;28;20210;-69
2022/09/01 11:44:14;;;;;;;1.73;0.88;;;22.70;96.00;;;;;;5087004;28;20669;-69
2022/09/01 11:46:42;;;;;;;0.65;0.65;;;22.60;95.60;;;;;;5086551;28;20207;-69
2022/09/01 11:49:28;;;;;;;1.05;0.63;;;22.60;95.60;;;;;;5087391;28;20556;-69
2022/09/01 11:51:57;;;;;;;1.88;0.70;;;22.60;95.50;;;;;;5086611;28;20238;-69
2022/09/01 11:54:24;;;;;;;1.27;0.75;;;22.50;95.20;;;;;;5086768;28;20203;-69
2022/09/01 11:56:51;;;;;;;0.90;0.85;;;22.50;95.60;;;;;;5086851;28;20219;-68
2022/09/01 11:59:32;;;;;;;2.25;0.68;;;22.50;95.80;;;;;;5086901;28;20217;-68
2022/09/01 12:01:59;;;;;;;1.08;0.30;;;22.50;96.20;;;;;;5086576;28;20210;-69
2022/09/01 12:04:32;;;;;;;0.88;0.70;;;22.50;95.90;;;;;;5086512;28;20520;-69
2022/09/01 12:07:02;;;;;;;0.60;0.50;;;22.40;95.20;;;;;;5086750;28;20223;-69
2022/09/01 12:09:38;;;;;;;1.00;0.55;;;22.40;95.40;;;;;;5087799;28;20211;-68
2022/09/01 12:12:08;;;;;;;5.25;0.77;;;22.40;95.80;;;;;;5093456;28;20218;-69
2022/09/01 12:14:35;;;;;;;3.15;1.08;;;22.40;95.80;;;;;;5106887;28;20216;-69
2022/09/01 12:17:05;;;;;;;3.42;0.80;;;22.50;96.50;;;;;;5106423;28;20653;-69
2022/09/01 12:19:37;;;;;;;2.17;0.68;;;22.80;96.60;;;;;;5109798;28;20305;-69
2022/09/01 12:22:13;;;;;;;4.57;0.50;;;22.90;97.00;;;;;;5110707;28;20201;-69
2022/09/01 12:24:45;;;;;;;0.98;0.50;;;22.90;96.90;;;;;;5108605;28;20247;-69
2022/09/01 12:27:13;;;;;;;1.38;0.70;;;22.80;96.60;;;;;;5090575;28;20627;-69
2022/09/01 12:29:40;;;;;;;3.55;0.93;;;22.70;97.00;;;;;;5090093;28;20272;-69
2022/09/01 12:32:07;;;;;;;10.52;1.08;;;22.70;97.20;;;;;;5090037;28;20318;-69
2022/09/01 12:34:41;;;;;;;4.10;0.88;;;22.60;97.20;;;;;;5090073;28;20251;-69
2022/09/01 12:37:12;;;;;;;0.50;0.50;;;22.50;97.00;;;;;;5109329;28;20296;-69
2022/09/01 12:39:40;;;;;;;0.50;0.40;;;22.40;97.30;;;;;;5096960;28;20202;-69
2022/09/01 12:42:11;;;;;;;0.77;0.57;;;22.30;97.20;;;;;;5089745;28;20206;-67
2022/09/01 12:44:49;;;;;;;0.80;0.50;;;22.20;97.00;;;;;;5089753;28;20187;-69
2022/09/01 12:47:49;;;;;;;0.40;0.40;;;22.10;97.20;;;;;;5089638;28;20206;-69
2022/09/01 12:50:45;;;;;;;1.50;0.60;;;22.10;97.80;;;;;;5089857;28;20203;-67
2022/09/01 12:53:23;;;;;;;1.38;0.45;;;22.10;97.70;;;;;;5090328;28;20248;-67
2022/09/01 12:56:17;;;;;;;0.63;0.60;;;22.20;98.00;;;;;;5109926;28;20193;-68
2022/09/01 12:58:50;;;;;;;0.57;0.52;;;22.20;98.00;;;;;;5109521;28;20198;-68
2022/09/01 13:01:31;;;;;;;0.52;0.40;;;22.20;97.60;;;;;;5109369;28;20196;-68
2022/09/01 13:04:27;;;;;;;6.40;1.05;;;22.30;97.80;;;;;;5109226;28;20713;-68
2022/09/01 13:07:00;;;;;;;10.48;1.65;;;22.50;97.60;;;;;;5096060;28;20218;-69
2022/09/01 13:09:27;;;;;;;2.88;0.60;;;22.80;97.40;;;;;;5109711;28;20186;-68
2022/09/01 13:12:08;;;;;;;0.70;0.50;;;23.30;96.70;;;;;;5108458;28;20233;-69